Time;durP1;ratioP1;P1;durP2;ratioP2;P2;SDS_P1;SDS_P2;PMS_P1;PMS_P2;Temp;Humidity;BMP_temperature;BMP_pressure;BME280_temperature;BME280_humidity;BME280_pressure;Samples;Min_cycle;Max_cycle;Signal;HPM_P1;HPM_P2
2021/09/25 00:00:43;;;;;;;41.30;22.08;;;16.20;99.90;;;;;;4999396;28;20138;-86
2021/09/25 00:03:09;;;;;;;46.08;23.42;;;16.30;99.90;;;;;;4995439;28;20665;-86
2021/09/25 00:05:38;;;;;;;46.50;23.05;;;16.30;99.90;;;;;;4985635;28;20086;-86
2021/09/25 00:08:05;;;;;;;51.92;23.05;;;16.20;99.90;;;;;;4981238;28;20840;-85
2021/09/25 00:10:34;;;;;;;58.03;23.55;;;16.20;99.90;;;;;;4970494;28;20622;-85
2021/09/25 00:13:01;;;;;;;49.63;23.90;;;16.10;99.90;;;;;;4971858;28;20049;-86
2021/09/25 00:15:30;;;;;;;46.97;23.50;;;16.20;99.90;;;;;;4969972;28;20050;-85
2021/09/25 00:17:58;;;;;;;57.63;26.38;;;16.10;99.90;;;;;;4971719;28;20086;-85
2021/09/25 00:20:25;;;;;;;61.67;27.38;;;16.10;99.90;;;;;;4971131;28;20864;-85
2021/09/25 00:22:52;;;;;;;51.30;25.95;;;16.00;99.90;;;;;;4977353;28;20129;-86
2021/09/25 00:25:18;;;;;;;54.97;26.13;;;16.00;99.90;;;;;;4980383;28;20077;-85
2021/09/25 00:27:45;;;;;;;61.50;24.65;;;16.00;99.90;;;;;;4981159;28;20085;-86
2021/09/25 00:30:14;;;;;;;50.60;25.30;;;16.00;99.90;;;;;;4981357;28;20081;-86
2021/09/25 00:32:41;;;;;;;55.55;25.50;;;15.90;99.90;;;;;;4980468;28;20078;-86
2021/09/25 00:35:10;;;;;;;52.63;25.27;;;15.90;99.90;;;;;;4980796;28;20472;-87
2021/09/25 00:37:38;;;;;;;55.08;23.63;;;16.00;99.90;;;;;;4986886;28;20407;-87
2021/09/25 00:40:07;;;;;;;49.70;24.15;;;16.00;99.90;;;;;;4984788;28;20941;-87
2021/09/25 00:42:33;;;;;;;51.63;22.65;;;15.90;99.90;;;;;;4986197;28;20138;-87
2021/09/25 00:45:00;;;;;;;46.75;20.98;;;16.00;99.90;;;;;;4985750;28;20054;-86
2021/09/25 00:47:35;;;;;;;47.47;21.55;;;15.90;99.90;;;;;;4984396;28;20054;-86
2021/09/25 00:50:04;;;;;;;46.30;21.55;;;15.80;99.90;;;;;;4986693;28;20074;-87
2021/09/25 00:52:31;;;;;;;39.00;21.00;;;15.90;99.90;;;;;;4989517;28;20493;-86
2021/09/25 00:54:58;;;;;;;52.20;23.00;;;16.00;99.90;;;;;;4987381;28;20069;-85
2021/09/25 00:57:25;;;;;;;46.35;21.73;;;15.80;99.90;;;;;;4988490;28;20161;-86
2021/09/25 00:59:53;;;;;;;47.50;21.75;;;15.90;99.90;;;;;;4988119;28;20129;-87
2021/09/25 01:02:21;;;;;;;54.40;25.13;;;15.90;99.90;;;;;;4989087;28;20093;-87
2021/09/25 01:04:49;;;;;;;60.28;24.50;;;15.90;99.90;;;;;;4998946;28;20046;-86
2021/09/25 01:07:16;;;;;;;52.08;25.33;;;15.90;99.90;;;;;;4986558;28;20050;-84
2021/09/25 01:09:51;;;;;;;58.50;26.08;;;15.80;99.90;;;;;;5003357;28;20058;-86
2021/09/25 01:12:18;;;;;;;51.45;24.08;;;15.80;99.90;;;;;;4975595;28;20154;-85
2021/09/25 01:14:45;;;;;;;49.85;24.73;;;15.90;99.90;;;;;;4986527;28;20123;-85
2021/09/25 01:17:13;;;;;;;55.28;26.65;;;15.80;99.90;;;;;;4985708;28;20082;-85
2021/09/25 01:19:42;;;;;;;53.20;25.88;;;15.80;99.90;;;;;;4986085;28;20047;-85
2021/09/25 01:22:10;;;;;;;52.10;25.63;;;15.80;99.90;;;;;;4985403;28;20086;-87
2021/09/25 01:24:39;;;;;;;60.78;25.83;;;15.70;99.90;;;;;;4979779;28;20057;-85
2021/09/25 01:27:06;;;;;;;60.60;27.60;;;15.60;99.90;;;;;;5001124;28;20137;-87
2021/09/25 01:29:34;;;;;;;64.22;29.88;;;15.60;99.90;;;;;;4975792;28;20535;-88
2021/09/25 01:32:04;;;;;;;64.22;30.35;;;15.60;99.90;;;;;;4984204;28;20136;-89
2021/09/25 01:34:31;;;;;;;66.05;30.23;;;15.50;99.90;;;;;;4985164;28;20085;-88
2021/09/25 01:36:58;;;;;;;71.20;29.90;;;15.50;99.90;;;;;;4989077;28;20133;-87
2021/09/25 01:39:25;;;;;;;73.07;30.90;;;15.50;99.90;;;;;;5004268;28;20050;-88
2021/09/25 01:41:52;;;;;;;75.93;30.98;;;15.40;99.90;;;;;;4989227;28;20060;-89
2021/09/25 01:44:18;;;;;;;74.03;30.83;;;15.50;99.90;;;;;;4986161;28;20137;-91
2021/09/25 01:46:45;;;;;;;68.45;29.17;;;15.40;99.90;;;;;;4985379;28;20138;-91
2021/09/25 01:49:12;;;;;;;69.07;30.27;;;15.40;99.90;;;;;;4983704;28;20830;-89
2021/09/25 01:51:38;;;;;;;65.88;28.42;;;15.40;99.90;;;;;;4987647;28;20530;-90
2021/09/25 01:54:06;;;;;;;68.50;30.55;;;15.40;99.90;;;;;;5002611;28;20133;-91
2021/09/25 01:56:34;;;;;;;69.63;28.55;;;15.40;99.90;;;;;;4984988;28;20071;-90
2021/09/25 01:59:00;;;;;;;69.80;28.05;;;15.40;99.90;;;;;;4984342;28;20125;-89
2021/09/25 02:01:28;;;;;;;66.68;29.95;;;15.50;99.90;;;;;;4987966;28;20496;-90
2021/09/25 02:03:55;;;;;;;65.03;28.48;;;15.40;99.90;;;;;;4986331;28;20173;-90
2021/09/25 02:06:22;;;;;;;66.80;29.40;;;15.30;99.90;;;;;;4999095;28;20066;-86
2021/09/25 02:08:49;;;;;;;65.70;28.77;;;15.40;99.90;;;;;;4986859;28;20133;-89
2021/09/25 02:11:16;;;;;;;66.65;27.33;;;15.30;99.90;;;;;;4988050;28;20074;-90
2021/09/25 02:13:44;;;;;;;59.03;27.70;;;15.30;99.90;;;;;;4984631;28;20070;-91
2021/09/25 02:16:11;;;;;;;63.13;27.60;;;15.40;99.90;;;;;;4984371;28;20078;-92
2021/09/25 02:18:38;;;;;;;69.22;27.42;;;15.30;99.90;;;;;;4988331;28;20038;-89
2021/09/25 02:21:05;;;;;;;66.18;26.70;;;15.40;99.90;;;;;;4979531;28;20051;-91
2021/09/25 02:23:33;;;;;;;54.70;24.75;;;15.40;99.90;;;;;;5001723;28;20134;-90
2021/09/25 02:26:01;;;;;;;52.58;25.27;;;15.40;99.90;;;;;;4988316;28;20061;-91
2021/09/25 02:28:29;;;;;;;46.90;23.83;;;15.50;99.90;;;;;;4982360;28;20113;-89
2021/09/25 02:30:57;;;;;;;51.13;24.13;;;15.40;99.90;;;;;;5002093;28;20125;-88
2021/09/25 02:33:26;;;;;;;45.03;22.95;;;15.40;99.90;;;;;;4982959;28;20051;-90
2021/09/25 02:35:54;;;;;;;54.58;24.98;;;15.40;99.90;;;;;;5000703;28;20404;-91
2021/09/25 02:38:20;;;;;;;45.28;22.60;;;15.50;99.90;;;;;;4985312;28;20475;-91
2021/09/25 02:40:47;;;;;;;47.33;21.08;;;15.50;99.90;;;;;;4992643;28;20804;-89
2021/09/25 02:43:14;;;;;;;46.92;22.02;;;15.40;99.90;;;;;;5006073;28;20078;-89
2021/09/25 02:45:41;;;;;;;42.08;19.88;;;15.50;99.90;;;;;;4992124;28;20097;-90
2021/09/25 02:48:08;;;;;;;41.90;20.80;;;15.40;99.90;;;;;;4990213;28;20130;-91
2021/09/25 02:50:35;;;;;;;39.65;19.30;;;15.40;99.90;;;;;;4987102;28;20077;-92
2021/09/25 02:53:05;;;;;;;37.92;19.38;;;15.40;99.90;;;;;;4990526;28;20708;-91
2021/09/25 02:55:31;;;;;;;43.90;20.38;;;15.50;99.90;;;;;;4991996;28;20078;-89
2021/09/25 02:57:58;;;;;;;40.08;19.70;;;15.60;99.90;;;;;;4992212;28;20229;-90
2021/09/25 03:00:25;;;;;;;38.33;19.90;;;15.50;99.90;;;;;;4991187;28;20828;-90
2021/09/25 03:02:52;;;;;;;36.28;18.80;;;15.50;99.90;;;;;;4992053;28;20078;-91
2021/09/25 03:05:20;;;;;;;44.42;19.70;;;15.60;99.90;;;;;;5000500;28;20070;-92
2021/09/25 03:07:47;;;;;;;42.20;19.48;;;15.60;99.90;;;;;;4989278;28;20057;-92
2021/09/25 03:10:16;;;;;;;34.35;18.42;;;15.60;99.90;;;;;;4992386;28;20109;-91
2021/09/25 03:12:42;;;;;;;40.83;18.52;;;15.50;99.90;;;;;;4988927;28;20061;-92
2021/09/25 03:15:10;;;;;;;37.00;19.02;;;15.60;99.90;;;;;;4989699;28;20166;-91
2021/09/25 03:17:37;;;;;;;37.40;18.48;;;15.60;99.90;;;;;;4988053;28;20125;-93
2021/09/25 03:20:05;;;;;;;35.47;19.65;;;15.60;99.90;;;;;;4991852;28;20056;-89
2021/09/25 03:22:32;;;;;;;44.15;18.35;;;15.70;99.90;;;;;;4990659;28;20050;-88
2021/09/25 03:24:59;;;;;;;40.28;17.45;;;15.60;99.90;;;;;;4986454;28;20081;-90
2021/09/25 03:27:26;;;;;;;36.70;18.63;;;15.70;99.90;;;;;;4987639;28;20112;-90
2021/09/25 03:29:53;;;;;;;35.30;18.35;;;15.60;99.90;;;;;;4999605;28;20085;-91
2021/09/25 03:32:20;;;;;;;33.25;17.35;;;15.60;99.90;;;;;;4986569;28;20089;-91
2021/09/25 03:34:47;;;;;;;36.45;17.58;;;15.50;99.90;;;;;;4995824;28;20137;-91
2021/09/25 03:37:14;;;;;;;35.85;18.48;;;15.80;99.90;;;;;;5005543;28;20125;-89
2021/09/25 03:39:40;;;;;;;35.10;18.42;;;15.80;99.90;;;;;;4991305;28;20137;-90
2021/09/25 03:42:07;;;;;;;31.05;17.88;;;15.70;99.90;;;;;;4987262;28;20083;-90
2021/09/25 03:44:34;;;;;;;35.42;17.52;;;15.70;99.90;;;;;;4991695;28;20137;-91
2021/09/25 03:47:01;;;;;;;36.95;17.52;;;15.70;99.90;;;;;;4991736;28;20074;-92
2021/09/25 03:49:28;;;;;;;42.45;17.90;;;15.70;99.90;;;;;;4984988;28;20061;-92
2021/09/25 03:51:55;;;;;;;31.58;17.13;;;15.70;99.90;;;;;;4989713;28;20081;-92
2021/09/25 03:54:31;;;;;;;30.75;18.23;;;15.80;99.90;;;;;;4989705;28;20571;-91
2021/09/25 03:56:59;;;;;;;33.25;17.83;;;15.70;99.90;;;;;;4988793;28;20567;-94
2021/09/25 03:59:26;;;;;;;39.00;17.80;;;15.70;99.90;;;;;;4991597;28;20080;-91
2021/09/25 04:01:53;;;;;;;32.15;17.70;;;15.80;99.90;;;;;;4986170;28;20165;-88
2021/09/25 04:04:24;;;;;;;39.30;17.92;;;15.90;99.90;;;;;;5003141;28;20054;-87
2021/09/25 04:06:51;;;;;;;37.05;16.80;;;15.90;99.90;;;;;;4985903;28;20100;-88
2021/09/25 04:09:18;;;;;;;31.10;16.00;;;15.90;99.90;;;;;;4985189;28;20089;-89
2021/09/25 04:11:48;;;;;;;30.58;16.98;;;15.80;99.90;;;;;;5005611;28;20719;-88
2021/09/25 04:14:19;;;;;;;41.53;17.27;;;15.80;99.90;;;;;;4990521;28;20081;-88
2021/09/25 04:16:47;;;;;;;35.65;17.23;;;15.80;99.90;;;;;;4997969;28;20077;-88
2021/09/25 04:19:13;;;;;;;32.92;16.95;;;15.90;99.90;;;;;;4987726;28;20042;-87
2021/09/25 04:21:41;;;;;;;29.88;14.98;;;16.00;99.90;;;;;;4985949;28;20090;-90
2021/09/25 04:24:26;;;;;;;27.88;16.35;;;15.80;99.90;;;;;;4985745;28;20090;-90
2021/09/25 04:26:52;;;;;;;30.13;16.33;;;15.90;99.90;;;;;;4979222;28;20409;-88
2021/09/25 04:29:19;;;;;;;40.90;17.45;;;15.90;99.90;;;;;;5000171;28;20082;-89
2021/09/25 04:31:46;;;;;;;32.78;15.75;;;15.90;99.90;;;;;;4986097;28;20146;-89
2021/09/25 04:34:15;;;;;;;31.90;17.80;;;15.90;99.90;;;;;;4988974;28;20073;-86
2021/09/25 04:36:42;;;;;;;32.15;16.52;;;15.90;99.90;;;;;;4987077;28;20494;-88
2021/09/25 04:39:09;;;;;;;37.50;16.92;;;15.90;99.90;;;;;;4988459;28;20089;-89
2021/09/25 04:41:42;;;;;;;31.48;15.95;;;15.80;99.90;;;;;;4985977;28;20086;-88
2021/09/25 04:44:14;;;;;;;32.47;16.35;;;15.90;99.90;;;;;;4983420;28;20133;-86
2021/09/25 04:46:41;;;;;;;31.63;16.10;;;15.90;99.90;;;;;;4994195;28;20149;-88
2021/09/25 04:49:08;;;;;;;36.50;17.17;;;15.90;99.90;;;;;;4987862;28;20078;-87
2021/09/25 04:51:36;;;;;;;28.92;16.25;;;15.80;99.90;;;;;;4984672;28;20145;-87
2021/09/25 04:54:04;;;;;;;29.25;15.55;;;15.80;99.90;;;;;;4990891;28;20487;-86
2021/09/25 04:56:31;;;;;;;30.58;15.27;;;15.90;99.90;;;;;;4983527;28;20085;-87
2021/09/25 04:58:58;;;;;;;37.05;15.45;;;15.80;99.90;;;;;;5000843;28;20073;-88
2021/09/25 05:01:25;;;;;;;31.88;16.45;;;15.80;99.90;;;;;;4983943;28;20138;-87
2021/09/25 05:03:52;;;;;;;28.90;14.75;;;16.00;99.90;;;;;;4987034;28;20058;-88
2021/09/25 05:06:19;;;;;;;26.17;14.23;;;16.00;99.90;;;;;;4985290;28;20516;-87
2021/09/25 05:08:46;;;;;;;32.90;16.08;;;16.00;99.90;;;;;;4984707;28;20084;-88
2021/09/25 05:11:13;;;;;;;35.33;16.70;;;15.90;99.90;;;;;;4995017;28;20082;-87
2021/09/25 05:13:42;;;;;;;38.13;17.98;;;15.90;99.90;;;;;;4987677;28;20069;-89
2021/09/25 05:16:08;;;;;;;36.00;18.23;;;16.00;99.90;;;;;;4985374;28;20074;-86
2021/09/25 05:18:35;;;;;;;35.92;15.82;;;15.90;99.90;;;;;;4980925;28;20081;-86
2021/09/25 05:21:02;;;;;;;31.23;16.20;;;15.90;99.90;;;;;;4978166;28;20657;-89
2021/09/25 05:23:30;;;;;;;36.88;16.35;;;15.90;99.90;;;;;;4986263;28;20136;-86
2021/09/25 05:25:56;;;;;;;39.83;16.90;;;16.00;99.90;;;;;;4982958;28;20077;-86
2021/09/25 05:28:23;;;;;;;35.33;16.27;;;16.00;99.90;;;;;;4982329;28;20508;-86
2021/09/25 05:30:50;;;;;;;35.85;18.02;;;15.90;99.90;;;;;;5004125;28;20154;-87
2021/09/25 05:33:17;;;;;;;38.90;16.63;;;15.90;99.90;;;;;;4979078;28;20050;-90
2021/09/25 05:35:45;;;;;;;39.67;17.92;;;15.90;99.90;;;;;;4986099;28;20125;-86
2021/09/25 05:38:15;;;;;;;34.50;16.70;;;16.00;99.90;;;;;;4985665;28;20084;-87
2021/09/25 05:40:44;;;;;;;43.45;17.35;;;16.00;99.90;;;;;;4984903;28;20484;-89
2021/09/25 05:43:12;;;;;;;33.70;16.98;;;16.00;99.90;;;;;;4984976;28;20108;-87
2021/09/25 05:45:39;;;;;;;33.38;15.75;;;16.00;99.90;;;;;;4980052;28;20090;-89
2021/09/25 05:48:13;;;;;;;34.20;16.85;;;16.00;99.90;;;;;;4984362;28;20125;-89
2021/09/25 05:50:43;;;;;;;32.20;16.17;;;16.00;99.90;;;;;;4987760;28;20392;-90
2021/09/25 05:53:15;;;;;;;34.28;15.13;;;16.00;99.90;;;;;;4983274;28;20527;-88
2021/09/25 05:55:42;;;;;;;41.60;18.08;;;16.00;99.90;;;;;;4971061;28;20859;-88
2021/09/25 05:58:09;;;;;;;36.05;16.55;;;16.00;99.90;;;;;;4984447;28;20144;-91
2021/09/25 06:00:35;;;;;;;34.63;16.20;;;16.00;99.90;;;;;;4980300;28;20122;-91
2021/09/25 06:03:07;;;;;;;31.45;16.83;;;16.10;99.90;;;;;;4989111;28;20096;-86
2021/09/25 06:05:34;;;;;;;31.33;16.10;;;16.10;99.90;;;;;;4977464;28;20043;-86
2021/09/25 06:08:03;;;;;;;32.70;15.98;;;16.10;99.90;;;;;;5002081;28;20129;-89
2021/09/25 06:10:31;;;;;;;35.40;17.00;;;16.10;99.90;;;;;;4981361;28;20057;-85
2021/09/25 06:12:58;;;;;;;34.90;16.33;;;16.00;99.90;;;;;;4977511;28;20074;-86
2021/09/25 06:15:25;;;;;;;36.75;17.33;;;16.20;99.90;;;;;;4992929;28;20055;-87
2021/09/25 06:17:53;;;;;;;39.30;15.20;;;16.10;99.90;;;;;;4989463;28;20081;-88
2021/09/25 06:20:20;;;;;;;35.95;16.33;;;16.10;99.90;;;;;;4988569;28;20051;-85
2021/09/25 06:22:47;;;;;;;33.45;15.75;;;16.10;99.90;;;;;;4993599;28;20082;-84
2021/09/25 06:25:14;;;;;;;32.42;15.27;;;16.20;99.90;;;;;;4991912;28;20085;-86
2021/09/25 06:27:41;;;;;;;30.08;14.32;;;16.10;99.90;;;;;;4991667;28;20118;-91
2021/09/25 06:30:09;;;;;;;29.95;15.18;;;16.10;99.90;;;;;;4993204;28;20096;-92
2021/09/25 06:32:39;;;;;;;33.58;16.85;;;16.20;99.90;;;;;;4989691;28;20100;-90
2021/09/25 06:35:08;;;;;;;30.98;14.60;;;16.20;99.90;;;;;;4988146;28;20047;-86
2021/09/25 06:37:35;;;;;;;27.70;14.02;;;16.20;99.90;;;;;;4985475;28;20158;-86
2021/09/25 06:40:03;;;;;;;25.63;14.07;;;16.20;99.90;;;;;;4977233;28;20138;-89
2021/09/25 06:42:30;;;;;;;33.42;14.25;;;16.30;99.90;;;;;;4973484;28;20089;-86
2021/09/25 06:44:57;;;;;;;27.40;13.63;;;16.20;99.90;;;;;;4968020;28;20510;-85
2021/09/25 06:47:24;;;;;;;22.05;12.30;;;16.20;99.90;;;;;;4969065;28;20094;-85
2021/09/25 06:49:51;;;;;;;22.38;13.43;;;16.20;99.90;;;;;;4969593;28;20058;-87
2021/09/25 06:52:19;;;;;;;24.88;13.85;;;16.30;99.90;;;;;;4971044;28;20046;-82
2021/09/25 06:54:46;;;;;;;22.17;13.02;;;16.30;99.90;;;;;;4972768;28;20143;-82
2021/09/25 06:57:13;;;;;;;25.48;12.93;;;16.40;99.90;;;;;;4969759;28;20154;-83
2021/09/25 06:59:40;;;;;;;23.23;12.73;;;16.30;99.90;;;;;;4971313;28;20056;-82
2021/09/25 07:02:07;;;;;;;20.05;12.57;;;16.30;99.90;;;;;;4968663;28;20062;-82
2021/09/25 07:04:34;;;;;;;25.83;13.85;;;16.40;99.90;;;;;;4987733;28;20133;-83
2021/09/25 07:07:01;;;;;;;24.23;13.77;;;16.30;99.90;;;;;;5000118;28;20054;-82
2021/09/25 07:09:28;;;;;;;22.92;12.48;;;16.30;99.90;;;;;;4985465;28;20889;-84
2021/09/25 07:11:55;;;;;;;26.48;13.27;;;16.30;99.90;;;;;;4978458;28;20092;-84
2021/09/25 07:14:22;;;;;;;27.92;13.40;;;16.30;99.90;;;;;;4986832;28;20743;-83
2021/09/25 07:16:50;;;;;;;29.13;14.32;;;16.30;99.90;;;;;;4985174;28;20089;-83
2021/09/25 07:19:17;;;;;;;28.60;14.95;;;16.30;99.90;;;;;;4986740;28;20058;-83
2021/09/25 07:21:44;;;;;;;28.38;14.15;;;16.50;99.90;;;;;;4985544;28;20129;-83
2021/09/25 07:24:11;;;;;;;27.63;14.35;;;16.40;99.90;;;;;;4983448;28;20126;-83
2021/09/25 07:26:39;;;;;;;29.70;14.65;;;16.50;99.90;;;;;;4982587;28;20082;-83
2021/09/25 07:29:06;;;;;;;30.38;15.27;;;16.60;99.90;;;;;;4980545;28;20588;-83
2021/09/25 07:31:33;;;;;;;26.42;13.95;;;16.60;99.90;;;;;;4982587;28;20133;-83
2021/09/25 07:34:00;;;;;;;28.38;14.45;;;16.60;99.90;;;;;;4986313;28;20129;-84
2021/09/25 07:36:28;;;;;;;35.42;15.25;;;16.60;99.90;;;;;;4988868;28;20058;-83
2021/09/25 07:38:55;;;;;;;27.65;14.20;;;16.60;99.90;;;;;;4980389;28;20134;-84
2021/09/25 07:41:23;;;;;;;27.15;14.50;;;16.50;99.90;;;;;;4982977;28;20086;-84
2021/09/25 07:43:52;;;;;;;27.65;14.45;;;16.50;99.90;;;;;;4981754;28;20177;-84
2021/09/25 07:46:19;;;;;;;36.05;15.43;;;16.50;99.90;;;;;;4979365;28;20057;-84
2021/09/25 07:48:46;;;;;;;31.95;15.57;;;16.50;99.90;;;;;;4981643;28;20047;-84
2021/09/25 07:51:14;;;;;;;36.33;15.73;;;16.50;99.90;;;;;;4980148;28;20125;-85
2021/09/25 07:53:40;;;;;;;31.63;15.38;;;16.60;99.90;;;;;;4977720;28;20163;-85
2021/09/25 07:56:08;;;;;;;34.88;16.13;;;16.70;99.90;;;;;;4984378;28;20056;-84
2021/09/25 07:58:34;;;;;;;34.30;15.50;;;16.60;99.90;;;;;;4980469;28;20077;-84
2021/09/25 08:01:02;;;;;;;36.03;16.15;;;16.60;99.90;;;;;;4983338;28;20141;-84
2021/09/25 08:03:30;;;;;;;29.80;15.13;;;16.60;99.90;;;;;;4983041;28;20647;-84
2021/09/25 08:05:57;;;;;;;35.50;16.25;;;16.60;99.90;;;;;;4991666;28;20081;-85
2021/09/25 08:08:24;;;;;;;30.17;15.75;;;16.50;99.90;;;;;;4982665;28;20073;-85
2021/09/25 08:10:51;;;;;;;46.20;17.13;;;16.50;99.90;;;;;;4986502;28;20842;-84
2021/09/25 08:13:18;;;;;;;38.03;16.60;;;16.70;99.90;;;;;;4980891;28;20137;-83
2021/09/25 08:15:48;;;;;;;33.85;16.85;;;16.80;99.90;;;;;;4989659;28;20046;-84
2021/09/25 08:18:17;;;;;;;31.40;16.25;;;16.90;99.90;;;;;;4989597;28;20069;-85
2021/09/25 08:20:45;;;;;;;31.45;16.30;;;17.00;99.90;;;;;;4985069;28;20061;-85
2021/09/25 08:23:12;;;;;;;34.42;15.95;;;17.00;99.90;;;;;;5002854;28;20061;-85
2021/09/25 08:25:39;;;;;;;36.05;15.90;;;17.00;99.90;;;;;;4988822;28;20092;-85
2021/09/25 08:28:13;;;;;;;31.65;15.35;;;16.90;99.90;;;;;;4989326;28;20495;-84
2021/09/25 08:30:41;;;;;;;28.45;16.15;;;16.90;99.90;;;;;;4989822;28;20133;-85
2021/09/25 08:33:08;;;;;;;30.73;15.15;;;16.90;99.90;;;;;;4989003;28;20100;-84
2021/09/25 08:35:42;;;;;;;30.27;14.43;;;16.90;99.90;;;;;;4983397;28;20775;-84
2021/09/25 08:38:15;;;;;;;30.45;14.85;;;16.90;99.90;;;;;;4986151;28;20125;-85
2021/09/25 08:40:45;;;;;;;26.83;14.52;;;17.00;99.90;;;;;;4988481;28;20862;-85
2021/09/25 08:43:16;;;;;;;33.90;15.68;;;17.00;99.90;;;;;;4987210;28;20051;-85
2021/09/25 08:45:52;;;;;;;26.00;13.50;;;17.20;99.90;;;;;;4982260;28;20812;-85
2021/09/25 08:48:23;;;;;;;30.20;14.68;;;17.30;99.90;;;;;;4987310;28;20049;-84
2021/09/25 08:50:57;;;;;;;26.40;14.02;;;17.40;99.90;;;;;;4983194;28;20117;-85
2021/09/25 08:53:42;;;;;;;22.77;13.60;;;17.40;99.90;;;;;;4984316;28;20173;-85
2021/09/25 08:56:13;;;;;;;26.90;14.60;;;17.50;99.90;;;;;;5001643;28;20065;-85
2021/09/25 08:58:56;;;;;;;23.90;13.48;;;17.50;99.90;;;;;;4987141;28;20042;-85
2021/09/25 09:01:31;;;;;;;27.15;12.50;;;17.50;99.90;;;;;;5002302;28;20150;-85
2021/09/25 09:04:17;;;;;;;25.88;13.80;;;17.50;99.90;;;;;;4987816;28;20412;-85
2021/09/25 09:06:55;;;;;;;24.98;13.77;;;17.60;99.90;;;;;;4987177;28;20097;-84
2021/09/25 09:09:27;;;;;;;24.00;12.65;;;17.60;99.90;;;;;;4983563;28;20046;-84
2021/09/25 09:11:56;;;;;;;26.90;12.80;;;17.60;99.90;;;;;;5004367;28;20042;-81
2021/09/25 09:14:40;;;;;;;23.10;13.02;;;17.80;99.90;;;;;;4987634;28;20137;-86
2021/09/25 09:17:15;;;;;;;23.48;13.00;;;17.90;99.90;;;;;;4988398;28;20042;-85
2021/09/25 09:19:45;;;;;;;22.33;12.80;;;18.10;99.90;;;;;;4988732;28;20050;-83
2021/09/25 09:22:17;;;;;;;26.17;12.77;;;18.30;99.90;;;;;;4984215;28;20051;-82
2021/09/25 09:24:51;;;;;;;20.35;11.93;;;18.40;99.90;;;;;;4983009;28;20101;-83
2021/09/25 09:27:26;;;;;;;25.23;12.05;;;18.50;99.90;;;;;;4988563;28;20054;-83
2021/09/25 09:30:13;;;;;;;22.30;11.95;;;18.60;99.90;;;;;;5002215;28;20061;-84
2021/09/25 09:32:56;;;;;;;20.15;11.10;;;18.70;99.90;;;;;;4988096;28;20050;-84
2021/09/25 09:35:41;;;;;;;20.73;11.93;;;18.80;99.90;;;;;;4985792;28;20046;-82
2021/09/25 09:38:08;;;;;;;18.45;12.00;;;18.80;99.90;;;;;;4985563;28;20049;-83
2021/09/25 09:40:44;;;;;;;19.60;11.18;;;18.80;99.90;;;;;;4984589;28;20105;-83
2021/09/25 09:43:14;;;;;;;17.20;11.65;;;19.10;99.90;;;;;;4987045;28;20051;-82
2021/09/25 09:45:49;;;;;;;19.20;11.75;;;19.40;99.90;;;;;;4984787;28;20058;-82
2021/09/25 09:48:25;;;;;;;21.38;11.65;;;19.10;99.90;;;;;;4982315;28;20443;-81
2021/09/25 09:50:54;;;;;;;22.80;11.60;;;19.20;99.90;;;;;;4990500;28;20051;-82
2021/09/25 09:53:40;;;;;;;19.38;10.52;;;19.10;99.90;;;;;;4989145;28;20050;-82
2021/09/25 09:56:24;;;;;;;19.73;11.00;;;19.50;99.90;;;;;;4989797;28;20104;-82
2021/09/25 09:59:04;;;;;;;21.45;10.40;;;19.60;99.90;;;;;;4990007;28;20441;-81
2021/09/25 10:01:39;;;;;;;18.98;10.93;;;19.30;99.90;;;;;;4988497;28;20047;-82
2021/09/25 10:04:07;;;;;;;20.40;10.77;;;19.60;99.90;;;;;;4987065;28;20051;-81
2021/09/25 10:06:54;;;;;;;23.25;11.43;;;19.60;99.90;;;;;;4988040;28;20039;-83
2021/09/25 10:09:24;;;;;;;20.88;10.73;;;19.70;99.90;;;;;;4983676;28;20046;-81
2021/09/25 10:12:03;;;;;;;20.05;12.25;;;19.70;99.90;;;;;;4991589;28;20078;-85
2021/09/25 10:14:40;;;;;;;18.55;11.00;;;19.50;99.90;;;;;;4988213;28;20081;-80
2021/09/25 10:17:12;;;;;;;24.67;11.23;;;19.70;99.90;;;;;;4980417;28;20062;-83
2021/09/25 10:19:49;;;;;;;19.63;10.95;;;19.80;99.90;;;;;;4984223;28;20038;-82
2021/09/25 10:22:31;;;;;;;20.48;11.63;;;20.00;99.90;;;;;;4983931;28;20062;-83
2021/09/25 10:25:07;;;;;;;16.95;11.15;;;19.90;99.90;;;;;;4989882;28;20043;-82
2021/09/25 10:27:45;;;;;;;21.52;11.80;;;19.70;99.90;;;;;;4987425;28;20056;-82
2021/09/25 10:30:36;;;;;;;23.98;11.93;;;19.60;99.90;;;;;;4988629;28;20059;-82
2021/09/25 10:33:16;;;;;;;18.70;11.55;;;19.30;99.90;;;;;;4989125;28;20058;-82
2021/09/25 10:35:46;;;;;;;20.60;11.30;;;19.70;99.90;;;;;;4986292;28;20042;-83
2021/09/25 10:38:39;;;;;;;21.05;11.70;;;20.40;99.90;;;;;;4992507;28;20468;-83
2021/09/25 10:41:41;;;;;;;16.92;9.23;;;20.20;99.90;;;;;;4985930;28;20046;-83
2021/09/25 10:44:24;;;;;;;17.70;10.77;;;20.10;99.90;;;;;;4992063;28;20088;-82
2021/09/25 10:47:07;;;;;;;18.85;9.50;;;20.40;99.90;;;;;;4987110;28;20134;-83
2021/09/25 10:49:53;;;;;;;18.10;9.45;;;20.50;99.90;;;;;;5004753;28;20050;-83
2021/09/25 10:53:07;;;;;;;25.33;11.93;;;20.20;99.90;;;;;;4980126;28;20050;-83
2021/09/25 10:55:40;;;;;;;21.02;11.00;;;20.30;99.90;;;;;;4991710;28;20054;-83
2021/09/25 10:58:23;;;;;;;19.95;10.75;;;20.40;99.90;;;;;;4983834;28;20077;-84
2021/09/25 11:01:04;;;;;;;23.08;10.43;;;20.50;99.90;;;;;;4983555;28;20136;-83
2021/09/25 11:06:39;;;;;;;26.63;11.20;;;20.60;99.90;;;;;;4982275;28;20112;-85
2021/09/25 11:09:29;;;;;;;20.30;10.70;;;20.50;99.90;;;;;;4981917;28;20146;-81
2021/09/25 11:12:05;;;;;;;21.17;11.30;;;20.60;99.90;;;;;;4983510;28;20050;-83
2021/09/25 11:14:55;;;;;;;20.50;9.32;;;20.50;99.90;;;;;;4983128;28;20046;-82
2021/09/25 11:17:36;;;;;;;18.67;10.13;;;20.80;99.90;;;;;;4985710;28;20042;-86
2021/09/25 11:20:08;;;;;;;19.95;11.02;;;21.30;99.90;;;;;;5006582;28;20054;-83
2021/09/25 11:22:47;;;;;;;18.25;9.57;;;21.10;99.90;;;;;;4980683;28;20062;-87
2021/09/25 11:25:24;;;;;;;18.48;10.05;;;21.20;99.90;;;;;;4988661;28;20053;-81
2021/09/25 11:27:54;;;;;;;15.77;9.77;;;21.50;99.90;;;;;;4988785;28;20132;-80
2021/09/25 11:30:27;;;;;;;24.63;9.63;;;21.40;99.90;;;;;;4988199;28;20081;-80
2021/09/25 11:33:11;;;;;;;25.85;9.20;;;21.50;99.90;;;;;;4974652;28;20073;-78
2021/09/25 11:35:48;;;;;;;16.65;9.25;;;21.10;99.90;;;;;;4988648;28;20050;-82
2021/09/25 11:38:33;;;;;;;20.55;8.85;;;20.60;99.90;;;;;;4980325;28;20045;-79
2021/09/25 11:41:06;;;;;;;18.20;9.07;;;20.40;99.90;;;;;;4981747;28;20129;-84
2021/09/25 11:43:36;;;;;;;24.13;9.00;;;20.30;99.90;;;;;;4986737;28;20046;-80
2021/09/25 11:46:05;;;;;;;18.77;9.15;;;20.30;99.90;;;;;;5004307;28;20101;-84
2021/09/25 11:48:35;;;;;;;26.30;9.75;;;20.10;99.90;;;;;;4985861;28;20078;-86
2021/09/25 11:51:06;;;;;;;17.35;8.48;;;20.20;99.90;;;;;;4986751;28;20055;-87
2021/09/25 11:53:36;;;;;;;19.25;8.77;;;20.10;99.90;;;;;;4982041;28;20051;-85
2021/09/25 11:56:09;;;;;;;18.15;8.02;;;20.00;99.90;;;;;;4982863;28;20078;-82
2021/09/25 11:58:37;;;;;;;19.10;8.27;;;19.80;99.90;;;;;;4987979;28;20054;-85
2021/09/25 12:01:10;;;;;;;16.52;6.35;;;19.70;99.90;;;;;;4985186;28;20105;-85
2021/09/25 12:03:41;;;;;;;15.13;6.80;;;19.70;99.90;;;;;;4988488;28;20058;-83
2021/09/25 12:06:15;;;;;;;10.90;6.20;;;19.90;99.90;;;;;;4983014;28;20058;-85
2021/09/25 12:08:49;;;;;;;16.75;6.15;;;20.10;99.90;;;;;;4987367;28;20471;-83
2021/09/25 12:11:28;;;;;;;13.13;6.50;;;20.30;99.90;;;;;;4982574;28;20058;-86
2021/09/25 12:14:00;;;;;;;16.95;6.38;;;20.60;99.90;;;;;;4983214;28;20046;-82
2021/09/25 12:16:29;;;;;;;14.65;6.25;;;20.80;99.90;;;;;;4985323;28;20555;-79
2021/09/25 12:19:00;;;;;;;11.77;5.57;;;21.50;99.90;;;;;;4983899;28;20604;-83
2021/09/25 12:21:33;;;;;;;19.15;6.85;;;21.70;99.90;;;;;;4984911;28;20439;-82
2021/09/25 12:24:11;;;;;;;8.85;5.93;;;21.10;99.90;;;;;;4979574;28;20053;-82
2021/09/25 12:26:47;;;;;;;11.77;5.68;;;21.00;99.90;;;;;;4988628;28;20081;-84
2021/09/25 12:29:16;;;;;;;9.98;5.65;;;20.80;99.90;;;;;;4989703;28;20054;-84
2021/09/25 12:31:45;;;;;;;13.18;6.03;;;20.60;99.90;;;;;;4988308;28;20456;-83
2021/09/25 12:34:21;;;;;;;15.25;5.40;;;20.50;99.90;;;;;;4990199;28;20125;-81
2021/09/25 12:37:10;;;;;;;11.32;6.00;;;20.30;99.90;;;;;;4990363;28;20038;-81
2021/09/25 12:39:47;;;;;;;10.27;5.07;;;20.30;99.90;;;;;;4986416;28;20038;-84
2021/09/25 12:42:26;;;;;;;12.05;5.93;;;20.30;99.90;;;;;;4999313;23;20046;-84
2021/09/25 12:45:00;;;;;;;12.95;5.35;;;20.20;99.90;;;;;;5007686;28;20226;-85
2021/09/25 12:47:33;;;;;;;10.77;5.50;;;20.00;99.90;;;;;;5006138;28;20081;-84